Time;durP1;ratioP1;P1;durP2;ratioP2;P2;SDS_P1;SDS_P2;PMS_P1;PMS_P2;Temp;Humidity;BMP_temperature;BMP_pressure;BME280_temperature;BME280_humidity;BME280_pressure;Samples;Min_cycle;Max_cycle;Signal;HPM_P1;HPM_P2
2023/09/10 00:00:58;;;;;;;9.00;8.43;;;24.70;51.70;;;;;;4973059;28;20466;-74
2023/09/10 00:03:23;;;;;;;8.13;7.63;;;24.70;51.60;;;;;;4980208;28;20226;-74
2023/09/10 00:05:49;;;;;;;7.87;7.40;;;24.70;51.70;;;;;;4980634;28;20649;-74
2023/09/10 00:08:14;;;;;;;8.13;7.63;;;24.70;51.70;;;;;;4964039;28;20234;-74
2023/09/10 00:10:41;;;;;;;8.70;8.20;;;24.70;51.70;;;;;;4961706;28;20734;-74
2023/09/10 00:13:07;;;;;;;7.90;7.40;;;24.70;51.70;;;;;;4975369;28;20228;-74
2023/09/10 00:15:33;;;;;;;7.80;7.40;;;24.70;51.70;;;;;;4976800;28;21087;-74
2023/09/10 00:17:59;;;;;;;9.17;8.30;;;24.70;51.70;;;;;;4980876;28;20298;-74
2023/09/10 00:20:26;;;;;;;8.17;7.77;;;24.70;51.70;;;;;;4979480;28;20243;-74
2023/09/10 00:22:52;;;;;;;8.00;7.50;;;24.70;51.70;;;;;;4977443;28;20401;-74
2023/09/10 00:25:17;;;;;;;9.00;8.50;;;24.70;51.70;;;;;;4978092;28;20558;-74
2023/09/10 00:27:43;;;;;;;7.90;7.50;;;24.70;51.80;;;;;;4979363;28;21475;-74
2023/09/10 00:30:09;;;;;;;7.30;7.00;;;24.70;51.70;;;;;;4981850;28;20663;-72
2023/09/10 00:32:35;;;;;;;7.90;7.50;;;24.70;51.80;;;;;;4983735;28;20242;-72
2023/09/10 00:35:00;;;;;;;8.27;7.80;;;24.70;51.80;;;;;;4976227;28;20496;-72
2023/09/10 00:37:26;;;;;;;7.77;7.40;;;24.70;51.80;;;;;;4974848;28;20306;-73
2023/09/10 00:39:51;;;;;;;8.37;7.87;;;24.70;51.70;;;;;;4977628;28;20794;-72
2023/09/10 00:42:17;;;;;;;8.80;8.10;;;24.70;51.70;;;;;;4972619;28;20227;-72
2023/09/10 00:44:43;;;;;;;7.70;7.30;;;24.70;51.70;;;;;;4973685;28;20653;-73
2023/09/10 00:47:09;;;;;;;7.97;7.57;;;24.70;51.70;;;;;;4977750;28;20219;-73
2023/09/10 00:49:35;;;;;;;7.53;7.13;;;24.70;51.80;;;;;;4976519;28;20284;-73
2023/09/10 00:52:04;;;;;;;8.63;8.03;;;24.70;51.80;;;;;;4978629;28;20474;-73
2023/09/10 00:54:34;;;;;;;7.83;7.43;;;24.70;51.80;;;;;;4976102;28;20480;-73
2023/09/10 00:57:01;;;;;;;8.13;7.63;;;24.70;51.90;;;;;;4974247;28;20472;-73
2023/09/10 00:59:28;;;;;;;8.67;8.17;;;24.70;51.80;;;;;;4975282;28;20501;-73
2023/09/10 01:01:54;;;;;;;8.60;8.10;;;24.70;51.80;;;;;;4977415;28;20568;-73
2023/09/10 01:04:22;;;;;;;9.27;8.67;;;24.70;51.80;;;;;;4977047;28;20578;-74
2023/09/10 01:06:48;;;;;;;9.10;8.40;;;24.70;51.80;;;;;;4976354;28;20548;-72
2023/09/10 01:09:14;;;;;;;7.77;7.37;;;24.70;51.80;;;;;;4975952;28;20492;-73
2023/09/10 01:12:04;;;;;;;8.40;8.00;;;24.70;51.90;;;;;;4976110;28;20588;-73
2023/09/10 01:14:40;;;;;;;8.70;8.13;;;24.70;51.80;;;;;;4977511;28;20475;-73
2023/09/10 01:17:29;;;;;;;8.37;7.87;;;24.70;51.80;;;;;;4987642;28;20477;-73
2023/09/10 01:20:11;;;;;;;8.83;8.30;;;24.70;51.80;;;;;;4983732;28;20466;-73
2023/09/10 01:22:58;;;;;;;7.93;7.50;;;24.70;51.80;;;;;;4980629;28;22858;-73
2023/09/10 01:25:24;;;;;;;7.80;7.40;;;24.70;51.80;;;;;;4988216;28;20467;-73
2023/09/10 01:27:49;;;;;;;8.00;7.53;;;24.70;51.90;;;;;;4984712;28;20492;-73
2023/09/10 01:30:15;;;;;;;7.70;7.20;;;24.70;51.80;;;;;;4981596;28;21308;-73
2023/09/10 01:32:44;;;;;;;7.30;6.90;;;24.70;51.80;;;;;;4976206;28;20304;-73
2023/09/10 01:35:19;;;;;;;8.40;7.90;;;24.70;51.80;;;;;;4974053;28;20785;-73
2023/09/10 01:38:12;;;;;;;9.13;8.53;;;24.70;51.80;;;;;;4974419;28;20473;-73
2023/09/10 01:41:00;;;;;;;8.13;7.60;;;24.70;51.80;;;;;;4975023;28;20473;-73
2023/09/10 01:43:26;;;;;;;7.83;7.33;;;24.70;51.80;;;;;;4977265;28;20561;-73
2023/09/10 01:45:51;;;;;;;8.33;7.83;;;24.60;51.80;;;;;;4963898;28;20539;-72
2023/09/10 01:48:17;;;;;;;7.80;7.40;;;24.70;51.90;;;;;;4973417;28;20526;-73
2023/09/10 01:50:43;;;;;;;8.70;8.00;;;24.60;51.80;;;;;;4966985;28;20289;-73
2023/09/10 01:53:09;;;;;;;8.30;7.80;;;24.70;51.80;;;;;;4959008;28;20581;-73
2023/09/10 01:55:34;;;;;;;8.00;7.60;;;24.70;51.80;;;;;;4975357;28;20476;-74
2023/09/10 01:58:00;;;;;;;7.40;7.00;;;24.70;51.90;;;;;;4976274;28;20272;-73
2023/09/10 02:00:26;;;;;;;7.63;7.23;;;24.70;51.80;;;;;;4975848;28;20268;-73
2023/09/10 02:02:51;;;;;;;8.60;7.93;;;24.60;51.70;;;;;;4972778;28;20246;-73
2023/09/10 02:05:17;;;;;;;8.13;7.63;;;24.60;51.70;;;;;;4981896;28;20267;-72
2023/09/10 02:07:42;;;;;;;8.47;7.97;;;24.70;51.80;;;;;;4977232;28;20403;-73
2023/09/10 02:10:08;;;;;;;8.03;7.53;;;24.60;51.70;;;;;;4972975;28;27692;-73
2023/09/10 02:12:34;;;;;;;8.20;7.70;;;24.60;51.80;;;;;;4975316;28;20345;-73
2023/09/10 02:15:00;;;;;;;7.77;7.37;;;24.60;51.70;;;;;;4978512;28;20305;-73
2023/09/10 02:17:26;;;;;;;7.37;6.97;;;24.60;51.80;;;;;;4974400;28;20293;-73
2023/09/10 02:19:51;;;;;;;7.93;7.53;;;24.60;51.80;;;;;;4974918;28;20673;-73
2023/09/10 02:22:16;;;;;;;8.07;7.67;;;24.60;51.70;;;;;;4973211;28;20228;-74
2023/09/10 02:24:42;;;;;;;7.27;6.87;;;24.70;51.80;;;;;;4974301;28;20215;-73
2023/09/10 02:27:08;;;;;;;8.70;8.10;;;24.60;51.70;;;;;;4980247;28;20226;-73
2023/09/10 02:29:33;;;;;;;8.40;7.90;;;24.70;51.90;;;;;;4975020;28;20266;-73
2023/09/10 02:31:59;;;;;;;8.50;7.90;;;24.60;52.50;;;;;;4973252;28;20704;-73
2023/09/10 02:34:24;;;;;;;8.20;7.77;;;24.60;51.70;;;;;;4975451;28;20231;-73
2023/09/10 02:36:50;;;;;;;8.33;7.73;;;24.70;51.90;;;;;;4974700;28;20265;-73
2023/09/10 02:39:15;;;;;;;8.30;7.80;;;24.60;51.80;;;;;;4976442;28;20250;-73
2023/09/10 02:41:41;;;;;;;8.17;7.70;;;24.70;51.90;;;;;;4977600;28;20228;-73
2023/09/10 02:44:06;;;;;;;7.80;7.40;;;24.60;51.80;;;;;;4971688;28;20290;-73
2023/09/10 02:46:32;;;;;;;8.20;7.70;;;24.60;51.70;;;;;;4976642;28;20254;-73
2023/09/10 02:48:57;;;;;;;7.80;7.40;;;24.60;51.80;;;;;;4974131;28;20282;-73
2023/09/10 02:51:23;;;;;;;7.47;7.07;;;24.60;51.80;;;;;;4976321;28;20235;-73
2023/09/10 02:53:48;;;;;;;8.40;7.90;;;24.60;51.90;;;;;;4972748;28;21253;-73
2023/09/10 02:56:14;;;;;;;8.30;7.90;;;24.60;51.80;;;;;;4968459;28;20223;-73
2023/09/10 02:58:41;;;;;;;7.70;7.30;;;24.60;51.80;;;;;;4978359;28;20232;-73
2023/09/10 03:01:06;;;;;;;7.87;7.37;;;24.60;51.80;;;;;;4976451;28;20223;-73
2023/09/10 03:03:32;;;;;;;8.13;7.70;;;24.60;51.80;;;;;;4972186;28;21163;-73
2023/09/10 03:05:58;;;;;;;8.27;7.67;;;24.60;51.80;;;;;;4975915;28;20234;-73
2023/09/10 03:08:23;;;;;;;8.67;8.07;;;24.60;52.50;;;;;;4976257;28;20470;-73
2023/09/10 03:10:49;;;;;;;8.03;7.43;;;24.70;51.90;;;;;;4976719;28;20240;-73
2023/09/10 03:13:14;;;;;;;8.30;7.90;;;24.60;51.80;;;;;;4977948;28;20671;-73
2023/09/10 03:15:40;;;;;;;7.93;7.47;;;24.60;51.80;;;;;;4974926;28;20362;-73
2023/09/10 03:18:06;;;;;;;7.67;7.20;;;24.60;51.80;;;;;;4971082;28;20231;-73
2023/09/10 03:20:31;;;;;;;7.33;6.93;;;24.60;51.80;;;;;;4957845;28;20254;-73
2023/09/10 03:22:59;;;;;;;7.70;7.30;;;24.60;51.80;;;;;;4972725;28;20237;-73
2023/09/10 03:25:25;;;;;;;8.20;7.77;;;24.60;51.80;;;;;;4961729;28;20817;-76
2023/09/10 03:27:51;;;;;;;8.27;7.67;;;24.60;51.80;;;;;;4975693;28;20481;-68
2023/09/10 03:30:17;;;;;;;8.30;7.80;;;24.60;51.80;;;;;;4977921;28;20517;-73
2023/09/10 03:32:43;;;;;;;7.43;7.03;;;24.60;51.80;;;;;;4973469;28;20234;-71
2023/09/10 03:35:11;;;;;;;7.77;7.20;;;24.60;51.80;;;;;;4957404;28;21020;-73
2023/09/10 03:37:36;;;;;;;8.73;8.10;;;24.60;51.80;;;;;;4975780;28;20229;-71
2023/09/10 03:40:04;;;;;;;7.77;7.27;;;24.60;51.80;;;;;;4977905;28;20457;-72
2023/09/10 03:42:30;;;;;;;7.87;7.40;;;24.60;51.80;;;;;;4980094;28;20698;-72
2023/09/10 03:44:55;;;;;;;7.53;7.03;;;24.60;51.80;;;;;;4978223;28;20456;-72
2023/09/10 03:47:21;;;;;;;7.80;7.40;;;24.60;51.80;;;;;;4975805;28;21162;-72
2023/09/10 03:49:46;;;;;;;7.93;7.20;;;24.60;51.90;;;;;;4978220;28;22399;-72
2023/09/10 03:52:20;;;;;;;8.10;7.70;;;24.60;51.80;;;;;;4977623;28;20262;-72
2023/09/10 03:54:45;;;;;;;7.43;6.93;;;24.60;51.80;;;;;;4977539;28;20722;-75
2023/09/10 03:57:11;;;;;;;8.33;7.90;;;24.60;51.80;;;;;;4975350;28;20496;-74
2023/09/10 03:59:36;;;;;;;8.60;8.00;;;24.60;51.80;;;;;;4983508;28;20647;-74
2023/09/10 04:02:02;;;;;;;8.40;7.60;;;24.60;51.80;;;;;;4987290;28;21101;-74
2023/09/10 04:04:28;;;;;;;8.47;7.90;;;24.60;51.80;;;;;;4988959;28;20226;-74
2023/09/10 04:06:54;;;;;;;8.60;8.10;;;24.60;51.80;;;;;;4990078;28;20310;-73
2023/09/10 04:09:20;;;;;;;8.30;7.73;;;24.60;51.80;;;;;;4989688;28;20539;-73
2023/09/10 04:11:45;;;;;;;8.20;7.70;;;24.60;51.80;;;;;;4990330;28;20239;-73
2023/09/10 04:14:11;;;;;;;8.10;7.50;;;24.60;51.80;;;;;;4984560;28;20234;-73
2023/09/10 04:16:36;;;;;;;7.70;7.20;;;24.60;51.80;;;;;;4987571;28;20307;-74
2023/09/10 04:19:02;;;;;;;8.27;7.53;;;24.60;51.80;;;;;;4984219;28;20565;-74
2023/09/10 04:21:27;;;;;;;8.07;7.63;;;24.60;51.80;;;;;;4985125;28;20234;-73
2023/09/10 04:23:53;;;;;;;8.43;7.83;;;24.60;51.80;;;;;;4987580;28;20235;-73
2023/09/10 04:26:18;;;;;;;8.27;7.77;;;24.60;51.80;;;;;;4973324;28;20277;-74
2023/09/10 04:28:44;;;;;;;8.10;7.60;;;24.60;51.80;;;;;;4988647;28;20321;-74
2023/09/10 04:31:13;;;;;;;8.73;8.13;;;24.60;51.80;;;;;;4984532;28;20642;-74
2023/09/10 04:33:39;;;;;;;8.30;7.80;;;24.60;51.80;;;;;;4985549;28;20861;-74
2023/09/10 04:36:05;;;;;;;8.53;8.03;;;24.60;51.80;;;;;;4988608;28;20461;-74
2023/09/10 04:38:30;;;;;;;7.30;6.90;;;24.60;51.80;;;;;;4987534;28;20220;-74
2023/09/10 04:40:56;;;;;;;8.10;7.60;;;24.60;51.80;;;;;;4971827;28;21471;-73
2023/09/10 04:43:22;;;;;;;8.27;7.70;;;24.60;51.80;;;;;;4985107;28;20251;-74
2023/09/10 04:45:47;;;;;;;7.97;7.37;;;24.60;51.80;;;;;;4986949;28;20340;-73
2023/09/10 04:48:13;;;;;;;8.37;7.67;;;24.60;51.80;;;;;;4986794;28;20231;-74
2023/09/10 04:50:39;;;;;;;8.47;7.90;;;24.60;51.70;;;;;;4985002;28;20843;-73
2023/09/10 04:53:05;;;;;;;7.97;7.47;;;24.60;51.70;;;;;;4984990;28;21060;-73
2023/09/10 04:55:31;;;;;;;7.90;7.50;;;24.60;51.70;;;;;;4986742;28;20504;-73
2023/09/10 04:57:56;;;;;;;8.37;7.87;;;24.60;51.70;;;;;;4988571;28;20223;-77
2023/09/10 05:00:22;;;;;;;7.80;7.30;;;24.70;51.80;;;;;;4989038;28;20277;-76
2023/09/10 05:02:47;;;;;;;8.03;7.53;;;24.60;51.60;;;;;;4988650;28;20224;-74
2023/09/10 05:05:13;;;;;;;7.80;7.40;;;24.60;51.60;;;;;;5001579;28;20575;-74
2023/09/10 05:07:38;;;;;;;8.07;7.57;;;24.60;51.70;;;;;;4989571;28;20282;-75
2023/09/10 05:10:04;;;;;;;8.50;7.93;;;24.70;51.70;;;;;;4987655;28;20233;-76
2023/09/10 05:12:30;;;;;;;8.20;7.80;;;24.70;51.70;;;;;;4988469;28;20310;-74
2023/09/10 05:14:55;;;;;;;7.43;6.93;;;24.60;51.60;;;;;;4991879;28;20256;-74
2023/09/10 05:17:21;;;;;;;7.77;7.37;;;24.70;51.70;;;;;;4992897;28;20243;-74
2023/09/10 05:19:47;;;;;;;8.00;7.50;;;24.70;51.70;;;;;;4988451;28;20227;-67
2023/09/10 05:22:13;;;;;;;8.43;7.93;;;24.60;51.60;;;;;;4990974;28;20238;-76
2023/09/10 05:24:38;;;;;;;8.00;7.50;;;24.70;51.60;;;;;;4993410;28;20444;-69
2023/09/10 05:27:04;;;;;;;7.83;7.33;;;24.70;51.70;;;;;;4990167;28;20234;-68
2023/09/10 05:29:29;;;;;;;7.93;7.53;;;24.70;51.70;;;;;;4995588;28;20587;-69
2023/09/10 05:31:55;;;;;;;8.70;7.83;;;24.70;51.60;;;;;;4990155;28;20647;-65
2023/09/10 05:34:21;;;;;;;7.57;7.10;;;24.70;51.60;;;;;;4993325;28;20283;-71
2023/09/10 05:36:48;;;;;;;8.87;8.27;;;24.70;51.60;;;;;;4991980;28;20219;-66
2023/09/10 05:39:14;;;;;;;8.87;8.17;;;24.70;51.60;;;;;;4979254;28;20228;-69
2023/09/10 05:41:39;;;;;;;7.63;7.03;;;24.70;51.50;;;;;;4995140;28;20467;-69
2023/09/10 05:44:05;;;;;;;9.13;8.57;;;24.70;51.50;;;;;;4991470;28;20298;-69
2023/09/10 05:46:31;;;;;;;8.13;7.73;;;24.70;51.50;;;;;;4978050;28;20243;-72
2023/09/10 05:48:56;;;;;;;8.10;7.60;;;24.70;51.50;;;;;;4970854;28;20223;-70
2023/09/10 05:51:22;;;;;;;9.73;8.87;;;24.70;51.50;;;;;;4988083;28;20238;-70
2023/09/10 05:53:47;;;;;;;8.90;8.30;;;24.70;51.50;;;;;;4991318;28;20290;-70
2023/09/10 05:56:13;;;;;;;8.33;7.73;;;24.70;51.40;;;;;;4988071;28;20238;-70
2023/09/10 05:58:38;;;;;;;8.67;8.03;;;24.70;51.50;;;;;;4990620;28;20235;-70
2023/09/10 06:01:04;;;;;;;8.20;7.70;;;24.70;51.30;;;;;;4992244;28;20226;-67
2023/09/10 06:03:29;;;;;;;8.43;7.83;;;24.70;51.50;;;;;;4976484;28;20230;-68
2023/09/10 06:05:56;;;;;;;8.27;7.77;;;24.70;51.50;;;;;;4991062;28;20246;-68
2023/09/10 06:08:22;;;;;;;8.60;8.10;;;24.70;51.40;;;;;;4990505;28;20589;-69
2023/09/10 06:10:48;;;;;;;7.87;7.33;;;24.70;51.40;;;;;;4973589;28;20548;-85
2023/09/10 06:13:13;;;;;;;8.70;8.17;;;24.70;51.50;;;;;;4967894;28;20459;-76
2023/09/10 06:15:39;;;;;;;9.00;8.40;;;24.70;51.30;;;;;;4977616;28;21172;-75
2023/09/10 06:18:05;;;;;;;8.43;7.87;;;24.70;51.30;;;;;;4989132;28;20707;-80
2023/09/10 06:20:30;;;;;;;8.50;7.97;;;24.70;51.30;;;;;;4979603;28;20279;-70
2023/09/10 06:22:57;;;;;;;8.40;7.80;;;24.70;51.30;;;;;;4981216;28;20776;-77
2023/09/10 06:25:25;;;;;;;9.00;8.40;;;24.70;51.30;;;;;;4976588;28;20231;-68
2023/09/10 06:27:51;;;;;;;7.90;7.40;;;24.70;51.30;;;;;;4988728;28;20575;-68
2023/09/10 06:30:17;;;;;;;7.97;7.47;;;24.70;51.30;;;;;;4989196;28;20940;-68
2023/09/10 06:32:42;;;;;;;8.47;7.97;;;24.70;51.20;;;;;;4982739;28;20437;-67
2023/09/10 06:35:08;;;;;;;7.80;7.40;;;24.80;51.30;;;;;;4982300;28;20231;-68
2023/09/10 06:37:33;;;;;;;7.47;7.00;;;24.70;51.20;;;;;;4970234;28;20227;-68
2023/09/10 06:39:59;;;;;;;8.17;7.73;;;24.70;51.30;;;;;;4979417;28;22127;-68
2023/09/10 06:42:25;;;;;;;7.87;7.37;;;24.70;52.10;;;;;;4971534;28;20255;-68
2023/09/10 06:44:50;;;;;;;8.10;7.60;;;24.70;51.30;;;;;;4976913;28;20236;-68
2023/09/10 06:47:16;;;;;;;8.20;7.70;;;24.70;51.30;;;;;;4973252;28;20630;-67
2023/09/10 06:49:41;;;;;;;7.30;6.90;;;24.70;51.20;;;;;;4972884;28;20242;-72
2023/09/10 06:52:08;;;;;;;7.90;7.40;;;24.70;51.30;;;;;;4971714;28;20219;-71
2023/09/10 06:54:34;;;;;;;7.37;6.97;;;24.70;51.30;;;;;;4977410;28;20894;-71
2023/09/10 06:57:00;;;;;;;8.43;7.93;;;24.70;51.30;;;;;;4973619;28;20615;-70
2023/09/10 06:59:27;;;;;;;8.80;8.23;;;24.80;51.40;;;;;;4973194;28;20227;-69
2023/09/10 07:01:52;;;;;;;8.53;7.90;;;24.80;51.50;;;;;;4970372;28;20500;-70
2023/09/10 07:04:22;;;;;;;7.20;6.80;;;24.70;51.40;;;;;;4969591;28;20579;-70
2023/09/10 07:06:49;;;;;;;7.80;7.30;;;24.70;51.30;;;;;;4982906;28;20818;-70
2023/09/10 07:09:17;;;;;;;8.07;7.57;;;24.70;51.30;;;;;;4980614;28;20659;-70
2023/09/10 07:11:43;;;;;;;7.73;7.23;;;24.70;51.40;;;;;;4984980;28;21000;-69
2023/09/10 07:14:08;;;;;;;8.20;7.50;;;24.70;51.40;;;;;;4987077;28;23785;-70
2023/09/10 07:16:34;;;;;;;7.53;7.07;;;24.70;51.40;;;;;;4983890;28;20285;-69
2023/09/10 07:19:00;;;;;;;8.80;8.20;;;24.80;51.50;;;;;;4988939;28;20586;-71
2023/09/10 07:21:27;;;;;;;8.20;7.70;;;24.80;51.50;;;;;;4990249;28;20334;-70
2023/09/10 07:23:52;;;;;;;8.20;7.70;;;24.70;51.50;;;;;;4987408;28;20461;-69
2023/09/10 07:26:18;;;;;;;7.63;7.20;;;24.70;51.50;;;;;;4968300;28;20457;-72
2023/09/10 07:28:43;;;;;;;7.67;7.20;;;24.80;51.60;;;;;;4988535;28;20363;-72
2023/09/10 07:31:09;;;;;;;8.07;7.57;;;24.80;51.60;;;;;;4987201;28;20247;-73
2023/09/10 07:33:35;;;;;;;7.30;6.90;;;24.70;51.60;;;;;;4987737;28;20257;-73
2023/09/10 07:36:00;;;;;;;8.53;7.93;;;24.70;51.60;;;;;;4984775;28;20468;-71
2023/09/10 07:38:26;;;;;;;8.93;8.13;;;24.80;51.70;;;;;;4987573;28;21172;-71
2023/09/10 07:40:51;;;;;;;8.50;7.90;;;24.70;51.70;;;;;;4988499;28;20219;-70
2023/09/10 07:43:17;;;;;;;8.10;7.50;;;24.70;51.70;;;;;;4990145;28;20241;-73
2023/09/10 07:45:45;;;;;;;8.30;7.80;;;24.70;51.70;;;;;;4986945;28;20235;-74
2023/09/10 07:48:12;;;;;;;8.17;7.43;;;24.70;51.70;;;;;;4983719;28;20237;-75
2023/09/10 07:50:37;;;;;;;8.03;7.37;;;24.70;51.80;;;;;;4986908;28;20521;-70
2023/09/10 07:53:03;;;;;;;8.20;7.60;;;24.70;51.70;;;;;;4987881;28;20556;-70
2023/09/10 07:55:28;;;;;;;8.63;8.00;;;24.70;52.50;;;;;;4988694;28;20231;-68
2023/09/10 07:57:54;;;;;;;11.20;7.97;;;24.70;51.70;;;;;;4987404;28;20232;-70
2023/09/10 08:00:20;;;;;;;8.67;7.53;;;24.70;51.80;;;;;;4988415;28;20354;-69
2023/09/10 08:02:46;;;;;;;8.97;8.10;;;24.70;51.80;;;;;;4985953;28;20437;-70
2023/09/10 08:05:12;;;;;;;8.50;7.80;;;24.70;51.90;;;;;;4988013;28;21012;-70
2023/09/10 08:07:37;;;;;;;7.57;7.07;;;24.70;51.80;;;;;;4981943;28;20259;-71
2023/09/10 08:10:03;;;;;;;8.30;7.80;;;24.80;51.90;;;;;;4985147;28;20468;-70
2023/09/10 08:12:29;;;;;;;8.13;7.63;;;24.80;51.90;;;;;;4978517;28;20266;-71
2023/09/10 08:14:55;;;;;;;8.07;7.47;;;24.80;52.00;;;;;;4990090;28;20231;-70
2023/09/10 08:17:21;;;;;;;8.27;7.87;;;24.80;52.00;;;;;;4981996;28;20262;-70
2023/09/10 08:19:46;;;;;;;8.03;7.53;;;24.80;52.00;;;;;;4981534;28;20322;-71
2023/09/10 08:22:12;;;;;;;8.40;7.80;;;24.70;51.90;;;;;;4986489;28;21151;-71
2023/09/10 08:24:37;;;;;;;7.63;7.03;;;24.80;52.00;;;;;;4987337;28;20219;-68
2023/09/10 08:27:03;;;;;;;7.77;7.37;;;24.80;52.00;;;;;;4988693;28;20739;-69
2023/09/10 08:29:30;;;;;;;8.27;7.47;;;24.80;52.00;;;;;;4989676;28;20231;-69
2023/09/10 08:31:57;;;;;;;8.43;7.73;;;24.80;52.00;;;;;;4990807;28;20487;-69
2023/09/10 08:34:22;;;;;;;9.00;8.20;;;24.80;52.10;;;;;;4978652;28;20309;-69
2023/09/10 08:36:48;;;;;;;7.93;7.20;;;24.80;52.10;;;;;;4975191;28;20581;-69
2023/09/10 08:39:13;;;;;;;11.53;7.60;;;24.80;53.00;;;;;;4983149;28;20226;-68
2023/09/10 08:41:51;;;;;;;8.23;7.50;;;24.80;52.20;;;;;;4981398;28;21145;-68
2023/09/10 08:44:20;;;;;;;9.20;8.30;;;24.80;52.10;;;;;;4990014;28;20223;-64
2023/09/10 08:46:51;;;;;;;9.10;8.03;;;24.80;52.20;;;;;;4984457;28;20911;-68
2023/09/10 08:49:19;;;;;;;8.33;7.53;;;24.80;52.20;;;;;;4988250;28;20515;-67
2023/09/10 08:51:45;;;;;;;8.90;7.83;;;24.80;52.30;;;;;;4985397;28;20507;-68
2023/09/10 08:54:12;;;;;;;9.20;8.40;;;24.80;52.20;;;;;;4967086;28;20461;-67
2023/09/10 08:56:39;;;;;;;9.80;8.00;;;24.80;52.30;;;;;;4980984;28;20241;-67
2023/09/10 08:59:06;;;;;;;8.33;7.63;;;24.80;52.30;;;;;;4981974;28;20499;-68
2023/09/10 09:01:31;;;;;;;9.40;8.47;;;24.80;52.30;;;;;;4986117;28;20578;-66
2023/09/10 09:03:59;;;;;;;10.13;7.30;;;24.80;52.30;;;;;;4986066;28;20981;-68
2023/09/10 09:06:28;;;;;;;14.73;7.70;;;24.90;52.50;;;;;;4976736;28;20659;-68
2023/09/10 09:08:58;;;;;;;8.97;8.07;;;24.80;52.30;;;;;;4983265;28;20559;-68
2023/09/10 09:11:25;;;;;;;9.90;8.93;;;24.80;52.30;;;;;;4975500;28;20472;-67
2023/09/10 09:13:52;;;;;;;9.30;7.30;;;24.90;52.40;;;;;;4961164;28;20555;-68
2023/09/10 09:16:20;;;;;;;17.17;9.03;;;24.90;52.40;;;;;;4970875;28;20473;-69
2023/09/10 09:18:46;;;;;;;12.63;8.50;;;24.90;52.50;;;;;;4962471;28;20485;-68
2023/09/10 09:21:20;;;;;;;9.03;6.83;;;24.90;52.50;;;;;;4971727;28;20467;-69
2023/09/10 09:23:57;;;;;;;9.20;7.53;;;24.90;52.40;;;;;;4973814;28;20479;-69
2023/09/10 09:26:25;;;;;;;13.50;7.37;;;24.90;52.40;;;;;;4967302;28;20469;-63
2023/09/10 09:28:52;;;;;;;12.47;8.23;;;24.90;52.50;;;;;;4969632;28;20479;-65
2023/09/10 09:31:21;;;;;;;8.70;7.87;;;24.90;52.40;;;;;;4967467;28;20554;-66
2023/09/10 09:33:46;;;;;;;11.77;7.97;;;24.90;52.40;;;;;;4965939;28;21315;-64
2023/09/10 09:36:12;;;;;;;12.53;8.80;;;24.80;52.30;;;;;;4972267;28;20453;-69
2023/09/10 09:38:43;;;;;;;18.43;7.90;;;24.90;52.50;;;;;;4976291;28;20232;-69
2023/09/10 09:41:08;;;;;;;8.87;8.00;;;24.80;52.30;;;;;;4977139;28;20883;-66
2023/09/10 09:43:34;;;;;;;8.10;7.40;;;24.80;52.40;;;;;;4976088;28;20975;-68
2023/09/10 09:46:01;;;;;;;8.20;7.50;;;24.90;52.50;;;;;;4966712;28;21533;-67
2023/09/10 09:48:27;;;;;;;8.43;7.60;;;24.90;52.40;;;;;;4976020;28;20470;-67
2023/09/10 09:50:53;;;;;;;22.97;13.47;;;24.90;52.50;;;;;;4966270;28;22204;-64
2023/09/10 09:53:18;;;;;;;11.57;10.37;;;24.90;52.30;;;;;;4975711;28;20334;-67
2023/09/10 09:55:44;;;;;;;18.10;12.23;;;24.90;52.30;;;;;;4971598;28;21153;-75
2023/09/10 09:58:11;;;;;;;27.20;14.57;;;24.90;52.30;;;;;;4974794;28;20385;-68
2023/09/10 10:00:37;;;;;;;21.27;15.70;;;24.90;52.40;;;;;;4976939;28;20250;-69
2023/09/10 10:03:05;;;;;;;28.70;17.60;;;24.90;52.40;;;;;;4975026;28;20460;-67
2023/09/10 10:05:32;;;;;;;27.07;16.90;;;24.90;52.50;;;;;;4973460;28;20498;-68
2023/09/10 10:07:58;;;;;;;25.93;16.50;;;24.90;52.50;;;;;;4976206;28;21044;-67
2023/09/10 10:10:24;;;;;;;24.80;15.63;;;24.90;52.50;;;;;;4975375;28;20464;-68
2023/09/10 10:12:52;;;;;;;25.70;15.23;;;24.90;52.40;;;;;;4978289;28;20478;-67
2023/09/10 10:15:19;;;;;;;21.00;15.00;;;24.90;52.40;;;;;;4978138;28;20223;-67
2023/09/10 10:17:46;;;;;;;24.00;15.30;;;24.90;52.50;;;;;;4957879;28;20481;-68
2023/09/10 10:20:13;;;;;;;21.20;14.87;;;24.90;52.50;;;;;;4973669;28;20456;-68
2023/09/10 10:22:39;;;;;;;26.73;13.80;;;24.90;52.50;;;;;;4979873;28;20504;-67
2023/09/10 10:25:06;;;;;;;19.70;14.37;;;24.90;52.40;;;;;;4974054;28;20486;-68
2023/09/10 10:27:34;;;;;;;17.90;12.77;;;24.90;52.40;;;;;;4973737;28;20461;-66
2023/09/10 10:30:00;;;;;;;15.10;12.90;;;24.90;52.40;;;;;;4957737;28;20782;-68
2023/09/10 10:32:32;;;;;;;22.13;13.00;;;24.90;52.40;;;;;;4960531;28;20483;-67
2023/09/10 10:35:01;;;;;;;15.70;12.27;;;24.90;52.30;;;;;;4974912;28;20227;-67
2023/09/10 10:37:32;;;;;;;19.23;13.10;;;24.90;52.50;;;;;;4976291;28;20469;-67
2023/09/10 10:40:11;;;;;;;16.53;12.23;;;24.90;52.40;;;;;;4975232;28;20555;-68
2023/09/10 10:42:49;;;;;;;16.30;11.90;;;24.90;52.30;;;;;;4959830;28;20543;-67
2023/09/10 10:45:17;;;;;;;13.80;11.13;;;24.90;52.40;;;;;;4974210;28;20448;-67
2023/09/10 10:47:44;;;;;;;13.80;12.30;;;24.90;52.50;;;;;;4971282;28;21040;-67
2023/09/10 10:50:10;;;;;;;15.00;11.30;;;24.90;52.50;;;;;;4975823;28;20524;-67
2023/09/10 10:52:43;;;;;;;13.63;11.33;;;24.90;52.40;;;;;;4975913;28;20491;-67
2023/09/10 10:55:10;;;;;;;17.43;11.40;;;24.90;52.30;;;;;;4962855;28;20456;-67
2023/09/10 10:57:36;;;;;;;13.63;10.63;;;24.90;52.30;;;;;;4974970;28;20569;-67
2023/09/10 11:00:03;;;;;;;11.63;10.43;;;24.90;52.40;;;;;;4978376;28;20966;-67
2023/09/10 11:02:29;;;;;;;11.23;10.30;;;24.90;52.30;;;;;;4975091;28;20501;-68
2023/09/10 11:04:55;;;;;;;15.17;11.50;;;24.90;52.30;;;;;;4975051;28;20586;-67
2023/09/10 11:07:22;;;;;;;11.23;9.97;;;24.90;52.30;;;;;;4975648;28;20231;-67
2023/09/10 11:09:48;;;;;;;10.97;9.80;;;24.90;52.30;;;;;;4977603;28;20467;-67
2023/09/10 11:12:15;;;;;;;10.73;9.73;;;24.90;52.30;;;;;;4977954;28;20477;-68
2023/09/10 11:14:58;;;;;;;10.87;9.70;;;24.90;52.30;;;;;;4980158;28;20227;-67
2023/09/10 11:17:27;;;;;;;10.47;9.40;;;24.90;52.30;;;;;;4973400;28;21256;-67
2023/09/10 11:19:53;;;;;;;9.77;8.97;;;24.90;52.30;;;;;;4972304;28;20943;-67
2023/09/10 11:22:18;;;;;;;10.10;9.20;;;24.90;52.30;;;;;;4978815;28;20594;-67
2023/09/10 11:25:03;;;;;;;9.77;8.90;;;24.90;52.30;;;;;;4970580;28;20227;-67
2023/09/10 11:27:30;;;;;;;10.20;9.20;;;24.90;53.00;;;;;;4974995;28;20229;-67
2023/09/10 11:30:14;;;;;;;10.70;9.70;;;24.90;52.40;;;;;;4973621;28;21213;-67
2023/09/10 11:32:41;;;;;;;11.57;8.60;;;24.90;52.30;;;;;;4973833;28;20453;-67
2023/09/10 11:35:19;;;;;;;9.73;8.90;;;24.90;52.30;;;;;;4977386;28;21063;-67
2023/09/10 11:37:49;;;;;;;9.87;8.97;;;24.90;52.30;;;;;;4974092;28;20457;-67
2023/09/10 11:40:14;;;;;;;9.10;8.20;;;24.90;52.30;;;;;;4972381;28;20472;-67
2023/09/10 11:42:47;;;;;;;10.03;8.27;;;24.90;52.20;;;;;;4973238;28;20504;-67
2023/09/10 11:45:13;;;;;;;9.13;8.33;;;24.90;52.20;;;;;;4976372;28;20351;-67
2023/09/10 11:47:47;;;;;;;9.43;8.70;;;24.90;52.30;;;;;;4979901;28;20484;-67
2023/09/10 11:50:14;;;;;;;8.97;8.17;;;24.90;52.20;;;;;;4974451;28;20841;-67
2023/09/10 11:55:15;;;;;;;9.20;8.23;;;24.90;52.30;;;;;;3031184;22;20585;-71
2023/09/10 11:57:41;;;;;;;8.57;7.97;;;24.90;52.20;;;;;;4988521;28;20555;-70
2023/09/10 12:00:11;;;;;;;9.37;8.67;;;25.00;52.30;;;;;;4992897;28;20437;-71
2023/09/10 12:02:36;;;;;;;9.40;8.50;;;24.90;52.20;;;;;;4992195;28;20664;-70
2023/09/10 12:05:06;;;;;;;8.93;8.27;;;25.00;52.20;;;;;;4996458;28;20482;-70
2023/09/10 12:07:32;;;;;;;8.23;7.67;;;24.90;52.20;;;;;;4995943;28;20196;-70
2023/09/10 12:09:58;;;;;;;8.47;7.87;;;24.90;52.20;;;;;;4993143;28;20469;-70
2023/09/10 12:12:34;;;;;;;8.30;7.60;;;24.90;52.20;;;;;;4993694;28;20218;-70
2023/09/10 12:14:59;;;;;;;9.20;8.57;;;25.00;52.30;;;;;;4994959;28;20665;-70
2023/09/10 12:17:25;;;;;;;9.07;8.30;;;24.90;52.20;;;;;;4994734;28;20472;-71
2023/09/10 12:19:51;;;;;;;8.10;7.60;;;25.00;52.30;;;;;;4992432;28;20670;-70
2023/09/10 12:22:19;;;;;;;7.53;6.93;;;25.00;52.30;;;;;;4992920;28;20199;-70
2023/09/10 12:24:45;;;;;;;8.47;7.93;;;25.00;52.30;;;;;;4993979;28;20436;-70
2023/09/10 12:27:13;;;;;;;8.00;7.50;;;25.00;52.30;;;;;;4994568;28;21128;-70
2023/09/10 12:29:40;;;;;;;8.03;7.43;;;25.00;52.40;;;;;;4994685;28;20437;-70
2023/09/10 12:32:05;;;;;;;8.03;7.40;;;25.00;52.30;;;;;;4990890;28;21034;-71
2023/09/10 12:34:32;;;;;;;8.13;7.53;;;25.00;52.30;;;;;;4994342;28;20503;-70
2023/09/10 12:36:58;;;;;;;7.83;7.10;;;25.00;52.30;;;;;;4997293;28;20188;-71
2023/09/10 12:39:26;;;;;;;7.37;6.97;;;25.00;52.30;;;;;;4992019;28;20443;-70
2023/09/10 12:41:53;;;;;;;7.53;7.13;;;25.00;52.30;;;;;;4986703;28;20631;-75
2023/09/10 12:44:25;;;;;;;8.33;7.83;;;25.00;52.30;;;;;;4986042;28;20443;-72